Flight Track Log - Related Links

Times and Time Zones

All times are in EDT time to prevent confusion due to time zone crossing. See the BAW2276 flight status page for this flight to view local times or setup timezone preferences in your user account.

Time Position Orientation Groundspeed Altitude Reporting Facility
EDT Latitude Longitude Course Direction KTS MPH feet Rate Location/Type
Sat 08:54:57 PM 36.0760 -115.1770 270° West 190 219 3,100  Level FlightAware ADS-B
Sat 08:55:27 PM 36.0760 -115.2110 270° West 206 237 3,700 1,309 Climbing FlightAware ADS-B
Sat 08:55:52 PM 36.0760 -115.2410 270° West 215 247 4,300 1,527 Climbing FlightAware ADS-B
Sat 08:56:22 PM 36.0830 -115.2760 284° West 215 247 5,100 1,600 Climbing FlightAware ADS-B
Sat 08:56:37 PM 36.0950 -115.2870 323° Northwest 214 246 5,500 1,650 Climbing FlightAware ADS-B
Sat 08:57:02 PM 36.1190 -115.2940 347° North 214 246 6,200 1,629 Climbing FlightAware ADS-B
Sat 08:57:47 PM 36.1590 -115.2800 16° North 216 249 7,400 1,629 Climbing FlightAware ADS-B
Sat 08:58:12 PM 36.1740 -115.2560 52° Northeast 221 254 8,100 1,309 Climbing FlightAware ADS-B
Sat 08:58:42 PM 36.1860 -115.2200 68° East 238 274 8,600 873 Climbing FlightAware ADS-B
Sat 08:59:07 PM 36.1950 -115.1840 73° East 265 305 8,900 982 Climbing FlightAware ADS-B
Sat 08:59:37 PM 36.1970 -115.1370 87° East 288 331 9,500 1,680 Climbing FlightAware ADS-B
Sat 09:00:22 PM 36.1970 -115.0630 90° East 295 339 11,000 2,118 Climbing FlightAware ADS-B
Sat 09:01:02 PM 36.1980 -114.9950 89° East 298 343 12,500 1,800 Climbing FlightAware ADS-B
Sat 09:01:42 PM 36.1990 -114.9260 89° East 322 371 13,400 1,412 Climbing FlightAware ADS-B
Sat 09:02:27 PM 36.2000 -114.8380 89° East 348 400 14,500 1,200 Climbing FlightAware ADS-B
Sat 09:03:02 PM 36.2010 -114.7670 89° East 368 423 15,000 1,425 Climbing FlightAware ADS-B
Sat 09:03:47 PM 36.1990 -114.6690 91° East 377 434 16,400 1,867 Climbing FlightAware ADS-B
Sat 09:04:32 PM 36.1980 -114.5750 91° East 381 438 17,800 1,906 Climbing FlightAware ADS-B
Sat 09:05:12 PM 36.1970 -114.4860 91° East 385 443 19,100 1,765 Climbing FlightAware ADS-B
Sat 09:05:57 PM 36.1960 -114.3840 91° East 394 453 20,300 1,694 Climbing FlightAware ADS-B
Sat 09:06:37 PM 36.1940 -114.2940 92° East 399 459 21,500 1,725 Climbing FlightAware ADS-B
Sat 09:07:17 PM 36.1990 -114.2020 86° East 400 460 22,600 1,553 Climbing FlightAware ADS-B
Sat 09:08:02 PM 36.2100 -114.1030 82° East 406 467 23,700 1,412 Climbing FlightAware ADS-B
Sat 09:08:42 PM 36.2220 -114.0090 81° East 413 475 24,600 1,341 Climbing FlightAware ADS-B
Sat 09:09:27 PM 36.2350 -113.9020 81° East 423 487 25,600 1,341 Climbing FlightAware ADS-B
Sat 09:10:07 PM 36.2460 -113.8040 82° East 427 491 26,500 1,341 Climbing FlightAware ADS-B
Sat 09:10:52 PM 36.2580 -113.6970 82° East 432 497 27,500 1,341 Climbing FlightAware ADS-B
Sat 09:11:32 PM 36.2700 -113.6000 81° East 435 501 28,400 1,275 Climbing FlightAware ADS-B
Sat 09:12:12 PM 36.2810 -113.5010 82° East 441 507 29,200 1,059 Climbing FlightAware ADS-B
Sat 09:12:57 PM 36.2940 -113.3870 82° East 449 517 29,900 918 Climbing FlightAware ADS-B
Sat 09:13:37 PM 36.3060 -113.2820 82° East 457 526 30,500 975 Climbing FlightAware ADS-B
Sat 09:14:17 PM 36.3280 -113.1830 75° East 457 526 31,200 988 Climbing FlightAware ADS-B
Sat 09:15:02 PM 36.3690 -113.0720 65° Northeast 463 533 31,900 494 Climbing FlightAware ADS-B
Sat 09:15:42 PM 36.4010 -112.9870 65° Northeast 463 533 31,900 706 Level FlightAware ADS-B
Sat 09:16:27 PM 36.4440 -112.8700 65° Northeast 477 549 32,900 975 Climbing FlightAware ADS-B
Sat 09:17:02 PM 36.4760 -112.7840 65° Northeast 474 545 33,200 1,350 Climbing FlightAware ADS-B
Sat 09:17:47 PM 36.5180 -112.6690 66° East 466 536 34,700 1,200 Climbing FlightAware ADS-B
Sat 09:18:32 PM 36.5590 -112.5570 65° Northeast 461 531 35,000 225 Climbing FlightAware ADS-B
Sat 09:19:07 PM 36.5850 -112.4850 66° East 460 529 35,000  Level FlightAware ADS-B
Sat 09:19:52 PM 36.6230 -112.3850 65° Northeast 460 529 35,000  Level FlightAware ADS-B
Sat 09:20:32 PM 36.6530 -112.3030 65° Northeast 460 529 35,000  Level FlightAware ADS-B
Sat 09:21:12 PM 36.6840 -112.2210 65° Northeast 460 529 35,000  Level FlightAware ADS-B
Sat 09:22:02 PM 36.7220 -112.1190 65° Northeast 460 529 35,000  Level FlightAware ADS-B
Sat 09:22:42 PM 36.7530 -112.0370 65° Northeast 460 529 35,000  Level FlightAware ADS-B
Sat 09:23:22 PM 36.7830 -111.9550 65° Northeast 460 529 35,000  Level FlightAware ADS-B
Sat 09:24:02 PM 36.8140 -111.8730 65° Northeast 460 529 35,000  Level FlightAware ADS-B
Sat 09:24:42 PM 36.8450 -111.7910 65° Northeast 460 529 35,000  Level FlightAware ADS-B
Sat 09:25:32 PM 36.8830 -111.6890 65° Northeast 460 529 35,000  Level FlightAware ADS-B
Sat 09:26:12 PM 36.9130 -111.6070 65° Northeast 460 529 35,000  Level FlightAware ADS-B
Sat 09:26:52 PM 36.9440 -111.5250 65° Northeast 460 529 35,000  Level FlightAware ADS-B
Sat 09:27:32 PM 36.9740 -111.4430 65° Northeast 460 529 35,000  Level FlightAware ADS-B
Sat 09:28:12 PM 37.0050 -111.3610 65° Northeast 460 529 35,000  Level FlightAware ADS-B
Sat 09:28:52 PM 37.0360 -111.2790 65° Northeast 460 529 35,000  Level FlightAware ADS-B
Sat 09:30:10 PM 37.1456 -110.9072 65° Northeast 457 526 35,000  Level Denver Center
Sat 09:31:12 PM 37.2067 -110.7328 66° East 457 526 35,000  Level Denver Center
Sat 09:32:13 PM 37.2572 -110.5861 67° East 458 527 35,000  Level Denver Center
Sat 09:33:15 PM 37.2967 -110.4683 67° East 459 528 35,000  Level Denver Center
Sat 09:34:16 PM 37.3664 -110.2650 67° East 455 524 35,000  Level Denver Center
Sat 09:35:18 PM 37.4108 -110.1336 67° East 455 524 35,000  Level Denver Center
Sat 09:36:19 PM 37.4658 -109.9703 67° East 454 522 35,000  Level Denver Center
Sat 09:37:20 PM 37.5056 -109.8517 67° East 459 528 35,000  Level Denver Center
Sat 09:38:22 PM 37.5689 -109.6633 67° East 458 527 35,000  Level Denver Center
Sat 09:39:24 PM 37.6156 -109.5214 67° East 458 527 35,000  Level Denver Center
Sat 09:40:25 PM 37.6625 -109.3786 67° East 459 528 35,000  Level Denver Center
Sat 09:41:26 PM 37.7181 -109.2108 67° East 463 533 35,000  Level Denver Center
Sat 09:42:28 PM 37.7647 -109.0678 68° East 461 531 35,000  Level Denver Center
Sat 09:43:29 PM 37.8178 -108.9286 64° Northeast 462 532 35,000  Level Denver Center
Sat 09:44:31 PM 37.9158 -108.7992 46° Northeast 456 525 35,000  Level Denver Center
Sat 09:50:32 PM 38.4660 -108.1270 46° Northeast 454 522 35,000 45 Level FlightAware ADS-B
Sat 09:51:12 PM 38.5270 -108.0520 44° Northeast 456 525 35,300 706 Climbing FlightAware ADS-B
Sat 09:51:57 PM 38.5930 -107.9690 44° Northeast 454 522 36,000 776 Climbing FlightAware ADS-B
Sat 09:52:37 PM 38.6520 -107.8950 44° Northeast 454 522 36,400 600 Climbing FlightAware ADS-B
Sat 09:53:17 PM 38.7120 -107.8200 44° Northeast 455 524 36,800 424 Climbing FlightAware ADS-B
Sat 09:54:02 PM 38.7800 -107.7350 44° Northeast 455 524 37,000 141 Climbing FlightAware ADS-B
Sat 09:54:42 PM 38.8400 -107.6600 44° Northeast 458 527 37,000  Level FlightAware ADS-B
Sat 09:55:22 PM 38.9020 -107.5810 45° Northeast 460 529 37,000  Level FlightAware ADS-B
Sat 09:56:07 PM 38.9710 -107.4930 45° Northeast 456 525 37,000  Level FlightAware ADS-B
Sat 09:56:47 PM 39.0310 -107.4170 45° Northeast 454 522 37,000  Level FlightAware ADS-B
Sat 09:56:54 PM 39.0448 -107.4000 44° Northeast 454 522 37,000  Level FlightAware ADS-B
Sat 09:57:25 PM 39.0897 -107.3430 45° Northeast 453 521 37,000  Level FlightAware ADS-B
Sat 09:58:00 PM 39.1421 -107.2760 45° Northeast 453 521 37,000  Level FlightAware ADS-B
Sat 09:58:30 PM 39.1878 -107.2180 45° Northeast 455 524 37,000  Level FlightAware ADS-B
Sat 09:59:01 PM 39.2334 -107.1600 45° Northeast 455 524 37,000  Level FlightAware ADS-B
Sat 09:59:31 PM 39.2785 -107.1020 45° Northeast 456 525 37,000  Level FlightAware ADS-B
Sat 10:00:01 PM 39.3233 -107.0440 45° Northeast 457 526 37,000  Level FlightAware ADS-B
Sat 10:00:32 PM 39.3688 -106.9860 45° Northeast 457 526 37,000  Level FlightAware ADS-B
Sat 10:01:00 PM 39.4119 -106.9300 45° Northeast 458 527 37,000  Level FlightAware ADS-B
Sat 10:01:31 PM 39.4584 -106.8730 43° Northeast 454 522 37,000  Level FlightAware ADS-B
Sat 10:02:01 PM 39.5054 -106.8180 42° Northeast 455 524 37,000  Level FlightAware ADS-B
Sat 10:02:31 PM 39.5532 -106.7630 42° Northeast 457 526 37,000  Level FlightAware ADS-B
Sat 10:03:01 PM 39.6003 -106.7080 42° Northeast 457 526 37,000  Level FlightAware ADS-B
Sat 10:03:31 PM 39.6470 -106.6540 42° Northeast 456 525 37,000  Level FlightAware ADS-B
Sat 10:04:01 PM 39.6940 -106.5990 42° Northeast 456 525 37,000  Level FlightAware ADS-B
Sat 10:04:32 PM 39.7418 -106.5430 42° Northeast 454 522 37,000  Level FlightAware ADS-B
Sat 10:05:02 PM 39.7891 -106.4880 42° Northeast 452 520 37,000  Level FlightAware ADS-B
Sat 10:05:33 PM 39.8372 -106.4320 42° Northeast 452 520 37,000  Level FlightAware ADS-B
Sat 10:06:05 PM 39.8870 -106.3730 42° Northeast 449 517 37,000  Level FlightAware ADS-B
Sat 10:07:47 PM 40.0437 -106.1880 42° Northeast 450 518 37,000  Level FlightAware ADS-B
Sat 10:08:25 PM 40.1040 -106.1170 42° Northeast 454 522 37,000  Level FlightAware ADS-B
Sat 10:09:12 PM 40.1720 -106.0360 42° Northeast 453 521 37,000  Level FlightAware ADS-B
Sat 10:09:41 PM 40.2208 -105.9780 42° Northeast 454 522 37,000  Level FlightAware ADS-B
Sat 10:10:15 PM 40.2730 -105.9160 42° Northeast 454 522 37,000  Level FlightAware ADS-B
Sat 10:11:09 PM 40.3552 -105.8180 42° Northeast 447 514 37,000  Level FlightAware ADS-B
Sat 10:11:41 PM 40.4048 -105.7580 43° Northeast 447 514 37,000  Level FlightAware ADS-B
Sat 10:12:42 PM 40.4940 -105.6500 43° Northeast 446 513 37,000  Level FlightAware ADS-B
Sat 10:13:22 PM 40.5560 -105.5760 42° Northeast 447 514 37,000  Level FlightAware ADS-B
Sat 10:14:02 PM 40.6160 -105.5040 42° Northeast 447 514 37,000  Level FlightAware ADS-B
Sat 10:14:19 PM 40.6450 -105.4680 43° Northeast 449 517 37,000  Level FlightAware ADS-B
Sat 10:14:50 PM 40.6924 -105.4110 42° Northeast 450 518 37,000  Level FlightAware ADS-B
Sat 10:15:27 PM 40.7460 -105.3450 43° Northeast 449 517 37,000  Level FlightAware ADS-B
Sat 10:15:58 PM 40.7960 -105.2840 43° Northeast 449 517 37,000  Level FlightAware ADS-B
Sat 10:16:39 PM 40.8579 -105.2090 42° Northeast 450 518 37,000  Level FlightAware ADS-B
Sat 10:17:09 PM 40.9046 -105.1510 43° Northeast 450 518 37,000  Level FlightAware ADS-B
Sat 10:17:39 PM 40.9503 -105.0950 43° Northeast 451 519 37,000  Level FlightAware ADS-B
Sat 10:18:10 PM 40.9965 -105.0380 43° Northeast 452 520 37,000  Level FlightAware ADS-B
Sat 10:18:40 PM 41.0424 -104.9820 43° Northeast 453 521 37,000  Level FlightAware ADS-B
Sat 10:19:42 PM 41.1360 -104.8660 43° Northeast 457 526 37,000  Level FlightAware ADS-B
Sat 10:19:59 PM 41.1651 -104.8300 43° Northeast 459 528 37,000  Level FlightAware ADS-B
Sat 10:20:29 PM 41.2115 -104.7720 43° Northeast 460 529 37,000  Level FlightAware ADS-B
Sat 10:20:48 PM 41.2408 -104.7340 44° Northeast 462 532 37,000  Level FlightAware ADS-B
Sat 10:21:19 PM 41.2864 -104.6710 46° Northeast 464 534 37,000  Level FlightAware ADS-B
Sat 10:22:01 PM 41.3488 -104.5830 47° Northeast 465 535 37,000  Level FlightAware ADS-B
Sat 10:22:32 PM 41.3950 -104.5200 46° Northeast 465 535 37,000  Level FlightAware ADS-B
Sat 10:23:02 PM 41.4397 -104.4580 46° Northeast 464 534 37,000  Level FlightAware ADS-B
Sat 10:23:33 PM 41.4853 -104.3960 46° Northeast 465 535 37,000  Level FlightAware ADS-B
Sat 10:24:04 PM 41.5310 -104.3330 46° Northeast 465 535 37,000  Level FlightAware ADS-B
Sat 10:24:34 PM 41.5759 -104.2700 46° Northeast 464 534 37,000  Level FlightAware ADS-B
Sat 10:25:05 PM 41.6213 -104.2070 46° Northeast 463 533 37,000  Level FlightAware ADS-B
Sat 10:25:37 PM 41.6691 -104.1410 46° Northeast 464 534 37,000  Level FlightAware ADS-B
Sat 10:26:07 PM 41.7140 -104.0780 46° Northeast 466 536 37,000  Level FlightAware ADS-B
Sat 10:26:37 PM 41.7589 -104.0150 46° Northeast 465 535 37,000  Level FlightAware ADS-B
Sat 10:27:09 PM 41.8057 -103.9500 46° Northeast 465 535 37,000  Level FlightAware ADS-B
Sat 10:27:39 PM 41.8500 -103.8870 47° Northeast 463 533 37,000  Level FlightAware ADS-B
Sat 10:28:09 PM 41.8945 -103.8250 46° Northeast 463 533 37,000  Level FlightAware ADS-B
Sat 10:28:43 PM 41.9444 -103.7540 47° Northeast 465 535 37,000  Level FlightAware ADS-B
Sat 10:29:13 PM 41.9892 -103.6910 46° Northeast 467 537 37,000  Level FlightAware ADS-B
Sat 10:29:47 PM 42.0391 -103.6200 47° Northeast 468 539 37,000  Level FlightAware ADS-B
Sat 10:30:17 PM 42.0841 -103.5560 47° Northeast 466 536 37,000  Level FlightAware ADS-B
Sat 10:30:52 PM 42.1362 -103.4820 46° Northeast 467 537 37,000  Level FlightAware ADS-B
Sat 10:31:22 PM 42.1804 -103.4190 47° Northeast 465 535 37,000  Level FlightAware ADS-B
Sat 10:32:12 PM 42.2539 -103.3130 47° Northeast 463 533 37,000  Level FlightAware ADS-B
Sat 10:32:42 PM 42.2981 -103.2500 47° Northeast 468 539 37,000  Level FlightAware ADS-B
Sat 10:33:26 PM 42.3632 -103.1560 47° Northeast 468 539 37,000  Level FlightAware ADS-B
Sat 10:33:56 PM 42.4075 -103.0920 47° Northeast 469 540 37,000  Level FlightAware ADS-B
Sat 10:34:27 PM 42.4524 -103.0270 47° Northeast 468 539 37,000  Level FlightAware ADS-B
Sat 10:35:03 PM 42.5059 -102.9490 47° Northeast 466 536 37,000  Level FlightAware ADS-B
Sat 10:35:33 PM 42.5501 -102.8850 47° Northeast 465 535 37,000  Level FlightAware ADS-B
Sat 10:35:51 PM 42.5631 -102.8644 47° Northeast 467 537 37,000  Level Denver Center
Sat 10:36:52 PM 42.6603 -102.7219 47° Northeast 464 534 37,000  Level Denver Center
Sat 10:37:52 PM 42.7447 -102.5986 47° Northeast 466 536 37,000  Level Denver Center
Sat 10:39:05 PM 42.8281 -102.4744 48° Northeast 465 535 37,000  Level Denver Center
Sat 10:40:07 PM 42.9394 -102.3106 47° Northeast 463 533 37,000  Level Denver Center
Sat 10:41:07 PM 43.0233 -102.1878 47° Northeast 463 533 37,000  Level Denver Center
Sat 10:42:08 PM 43.1169 -102.0417 49° Northeast 460 529 37,000  Level Denver Center
Sat 10:43:09 PM 43.2011 -101.9181 47° Northeast 462 532 37,000  Level Denver Center
Sat 10:44:10 PM 43.2833 -101.7953 47° Northeast 458 527 37,000  Level Denver Center
Sat 10:45:11 PM 43.3644 -101.6725 48° Northeast 454 522 37,000  Level Denver Center
Sat 10:46:12 PM 43.4672 -101.5156 48° Northeast 458 527 37,000  Level Denver Center
Sat 10:47:13 PM 43.5536 -101.3844 48° Northeast 461 531 37,000  Level Denver Center
Sat 10:48:14 PM 43.6372 -101.2517 49° Northeast 459 528 37,000  Level Denver Center
Sat 10:49:15 PM 43.7225 -101.1214 48° Northeast 458 527 37,000  Level Denver Center
Sat 10:50:12 PM 43.7739 -101.0436 48° Northeast 458 527 37,000  Level Minneapolis Center
Sat 10:51:13 PM 43.8928 -100.8589 48° Northeast 460 529 37,000  Level Minneapolis Center
Sat 10:52:13 PM 43.9775 -100.7247 49° Northeast 462 532 37,000  Level Minneapolis Center
Sat 10:53:14 PM 44.0631 -100.5908 48° Northeast 463 533 37,000  Level Minneapolis Center
Sat 10:54:27 PM 44.1489 -100.4542 49° Northeast 468 539 37,000  Level Minneapolis Center
Sat 10:55:28 PM 44.2522 -100.2903 49° Northeast 470 541 37,000  Level Minneapolis Center
Sat 10:56:29 PM 44.3378 -100.1525 49° Northeast 471 542 37,000  Level Minneapolis Center
Sat 10:57:29 PM 44.4244 -100.0139 49° Northeast 475 547 37,000  Level Minneapolis Center
Sat 10:58:30 PM 44.5100 -99.8764 49° Northeast 473 544 37,000  Level Minneapolis Center
Sat 10:59:31 PM 44.5944 -99.7386 49° Northeast 471 542 37,000  Level Minneapolis Center
Sat 11:00:31 PM 44.6792 -99.6008 49° Northeast 471 542 37,000  Level Minneapolis Center
Sat 11:01:32 PM 44.7642 -99.4608 49° Northeast 474 545 37,000  Level Minneapolis Center
Sat 11:02:33 PM 44.8508 -99.3197 49° Northeast 478 550 37,000  Level Minneapolis Center
Sat 11:03:34 PM 44.9536 -99.1489 50° Northeast 480 552 37,000  Level Minneapolis Center
Sat 11:04:34 PM 45.0406 -99.0044 50° Northeast 483 556 37,000  Level Minneapolis Center
Sat 11:05:35 PM 45.1272 -98.8594 50° Northeast 484 557 37,000  Level Minneapolis Center
Sat 11:06:36 PM 45.2139 -98.7142 50° Northeast 484 557 37,000  Level Minneapolis Center
Sat 11:07:36 PM 45.2997 -98.5694 50° Northeast 483 556 37,000  Level Minneapolis Center
Sat 11:08:37 PM 45.3847 -98.4239 50° Northeast 481 554 37,000  Level Minneapolis Center
Sat 11:09:38 PM 45.4592 -98.2633 56° Northeast 486 559 37,000  Level Minneapolis Center
Sat 11:10:39 PM 45.5208 -98.0914 63° Northeast 489 563 37,000  Level Minneapolis Center
Sat 11:11:39 PM 45.5903 -97.9067 62° Northeast 497 572 37,000  Level Minneapolis Center
Sat 11:12:40 PM 45.6542 -97.7311 62° Northeast 498 573 37,000  Level Minneapolis Center
Sat 11:13:41 PM 45.7189 -97.5536 62° Northeast 502 578 37,000  Level Minneapolis Center
Sat 11:14:41 PM 45.7831 -97.3769 62° Northeast 502 578 37,000  Level Minneapolis Center
Sat 11:15:42 PM 45.8472 -97.2017 62° Northeast 498 573 37,000  Level Minneapolis Center
Sat 11:16:42 PM 45.9119 -97.0211 63° Northeast 501 577 37,000  Level Minneapolis Center
Sat 11:17:43 PM 45.9750 -96.8428 63° Northeast 505 581 37,000  Level Minneapolis Center
Sat 11:18:44 PM 46.0375 -96.6628 63° Northeast 504 580 37,000  Level Minneapolis Center
Sat 11:19:44 PM 46.1000 -96.4858 63° Northeast 501 577 37,000  Level Minneapolis Center
Sat 11:20:45 PM 46.1614 -96.3092 63° Northeast 496 571 37,000  Level Minneapolis Center
Sat 11:21:45 PM 46.2250 -96.1308 63° Northeast 500 575 37,000  Level Minneapolis Center
Sat 11:22:46 PM 46.2853 -95.9567 63° Northeast 492 566 37,000  Level Minneapolis Center
Sat 11:23:47 PM 46.3444 -95.7775 64° Northeast 489 563 37,000  Level Minneapolis Center
Sat 11:24:47 PM 46.4036 -95.6003 64° Northeast 489 563 37,000  Level Minneapolis Center
Sat 11:25:48 PM 46.4611 -95.4314 64° Northeast 492 566 37,000  Level Minneapolis Center
Sat 11:31:32 PM 46.8100 -94.3720 64° Northeast 496 571 37,000  Level FlightAware ADS-B
Sat 11:32:12 PM 46.8490 -94.2520 65° Northeast 495 570 37,000  Level FlightAware ADS-B
Sat 11:32:52 PM 46.8880 -94.1310 65° Northeast 497 572 37,000  Level FlightAware ADS-B
Sat 11:33:37 PM 46.9320 -93.9910 65° Northeast 499 574 37,000  Level FlightAware ADS-B
Sat 11:34:17 PM 46.9720 -93.8670 65° Northeast 502 578 37,000  Level FlightAware ADS-B
Sat 11:35:02 PM 47.0140 -93.7320 65° Northeast 505 581 37,000  Level FlightAware ADS-B
Sat 11:35:42 PM 47.0530 -93.6070 65° Northeast 504 580 37,000  Level FlightAware ADS-B
Sat 11:36:22 PM 47.0920 -93.4840 65° Northeast 505 581 37,000  Level FlightAware ADS-B
Sat 11:37:07 PM 47.1370 -93.3400 65° Northeast 504 580 37,000  Level FlightAware ADS-B
Sat 11:37:47 PM 47.1750 -93.2150 66° East 504 580 37,000  Level FlightAware ADS-B
Sat 11:38:32 PM 47.2170 -93.0780 66° East 506 582 37,000  Level FlightAware ADS-B
Sat 11:39:12 PM 47.2550 -92.9540 66° East 506 582 37,000  Level FlightAware ADS-B
Sat 11:39:57 PM 47.3000 -92.8080 66° East 508 585 37,000  Level FlightAware ADS-B
Sat 11:40:37 PM 47.3370 -92.6840 66° East 508 585 37,000  Level FlightAware ADS-B
Sat 11:41:17 PM 47.3760 -92.5560 66° East 507 583 37,000  Level FlightAware ADS-B
Sat 11:42:02 PM 47.4170 -92.4170 66° East 506 582 37,000  Level FlightAware ADS-B
Sat 11:42:42 PM 47.4550 -92.2900 66° East 506 582 37,000  Level FlightAware ADS-B
Sat 11:43:27 PM 47.4970 -92.1470 66° East 507 583 37,000  Level FlightAware ADS-B
Sat 11:44:07 PM 47.5350 -92.0180 66° East 509 586 37,000  Level FlightAware ADS-B
Sat 11:44:47 PM 47.5730 -91.8900 66° East 509 586 37,000  Level FlightAware ADS-B
Sat 11:45:32 PM 47.6140 -91.7500 66° East 511 588 37,000  Level FlightAware ADS-B
Sat 11:46:12 PM 47.6510 -91.6220 67° East 511 588 37,000  Level FlightAware ADS-B
Sat 11:46:52 PM 47.6880 -91.4930 67° East 510 587 37,000  Level FlightAware ADS-B
Sat 11:47:37 PM 47.7300 -91.3450 67° East 511 588 37,000  Level FlightAware ADS-B
Sat 11:48:17 PM 47.7670 -91.2150 67° East 511 588 37,000  Level FlightAware ADS-B
Sat 11:48:57 PM 47.8030 -91.0900 67° East 510 587 37,000  Level FlightAware ADS-B
Sat 11:49:42 PM 47.8450 -90.9390 67° East 510 587 37,000  Level FlightAware ADS-B
Sat 11:50:22 PM 47.8800 -90.8140 67° East 509 586 37,000  Level FlightAware ADS-B
Sat 11:51:07 PM 47.9210 -90.6690 67° East 509 586 37,000  Level FlightAware ADS-B
Sat 11:51:47 PM 47.9560 -90.5420 68° East 510 587 37,000  Level FlightAware ADS-B
Sat 11:52:32 PM 47.9980 -90.3910 67° East 509 586 37,000  Level FlightAware ADS-B
Sat 11:53:12 PM 48.0320 -90.2650 68° East 510 587 37,000  Level FlightAware ADS-B
Sat 11:53:52 PM 48.0680 -90.1320 68° East 508 585 37,000  Level FlightAware ADS-B
Sat 11:54:37 PM 48.1070 -89.9890 68° East 506 582 37,000  Level FlightAware ADS-B
Sat 11:55:17 PM 48.1430 -89.8560 68° East 507 583 37,000  Level FlightAware ADS-B
Sat 11:55:57 PM 48.1770 -89.7280 68° East 507 583 37,000  Level FlightAware ADS-B
Sat 11:56:42 PM 48.2130 -89.5930 68° East 507 583 37,000  Level FlightAware ADS-B
Sat 11:57:22 PM 48.2430 -89.4820 68° East 507 583 37,000  Level FlightAware ADS-B
Sat 11:58:02 PM 48.2730 -89.3710 68° East 507 583 37,000  Level FlightAware ADS-B
Sat 11:58:42 PM 48.3030 -89.2590 68° East 507 583 37,000  Level FlightAware ADS-B
Sat 11:59:22 PM 48.3330 -89.1480 68° East 507 583 37,000  Level FlightAware ADS-B
Sun 12:00:12 AM 48.3700 -89.0090 68° East 507 583 37,000  Level FlightAware ADS-B
Sun 12:00:52 AM 48.4000 -88.8980 68° East 507 583 37,000  Level FlightAware ADS-B
Sun 12:01:32 AM 48.4300 -88.7860 68° East 507 583 37,000  Level FlightAware ADS-B
Sun 12:02:22 AM 48.4670 -88.6470 68° East 507 583 37,000  Level FlightAware ADS-B
Sun 12:03:02 AM 48.4970 -88.5350 68° East 507 583 37,000  Level FlightAware ADS-B
Sun 12:03:42 AM 48.5270 -88.4240 68° East 507 583 37,000  Level FlightAware ADS-B
Sun 12:04:22 AM 48.5570 -88.3120 68° East 507 583 37,000  Level FlightAware ADS-B
Sun 12:05:02 AM 48.5860 -88.2000 69° East 507 583 37,000  Level FlightAware ADS-B
Sun 12:05:52 AM 48.6240 -88.0610 67° East 507 583 37,000  Level FlightAware ADS-B
Sun 12:06:10 AM 48.7833 -87.7667 67° East 500 575 37,000  Level Winnipeg Center
Sun 12:07:10 AM 48.8500 -87.5667 63° Northeast 500 575 37,000  Level Winnipeg Center
Sun 12:08:10 AM 48.9000 -87.3667 69° East 510 587 37,000  Level Winnipeg Center
Sun 12:09:10 AM 48.9667 -87.2000 59° Northeast 500 575 37,000  Level Winnipeg Center
Sun 12:10:10 AM 49.0167 -87.0000 69° East 500 575 37,000  Level Winnipeg Center
Sun 12:11:10 AM 49.0833 -86.7833 65° Northeast 500 575 37,000  Level Winnipeg Center
Sun 12:12:10 AM 49.1500 -86.6167 59° Northeast 500 575 37,000  Level Winnipeg Center
Sun 12:13:10 AM 49.2000 -86.4167 69° East 500 575 37,000  Level Winnipeg Center
Sun 12:14:10 AM 49.2667 -86.2333 61° Northeast 500 575 37,000  Level Winnipeg Center
Sun 12:15:10 AM 49.3333 -86.0333 63° Northeast 500 575 37,000  Level Winnipeg Center
Sun 12:16:10 AM 49.3833 -85.8333 69° East 500 575 37,000  Level Winnipeg Center
Sun 12:17:10 AM 49.4500 -85.6500 61° Northeast 500 575 37,000  Level Winnipeg Center
Sun 12:18:10 AM 49.4833 -85.4500 76° East 510 587 37,000  Level Winnipeg Center
Sun 12:19:10 AM 49.5500 -85.2333 65° Northeast 510 587 37,000  Level Winnipeg Center
Sun 12:20:10 AM 49.6167 -85.0500 61° Northeast 510 587 37,000  Level Winnipeg Center
Sun 12:21:10 AM 49.6667 -84.8333 70° East 510 587 37,000  Level Winnipeg Center
Sun 12:22:10 AM 49.7167 -84.6333 69° East 510 587 37,000  Level Winnipeg Center
Sun 12:23:10 AM 49.7833 -84.4667 58° Northeast 510 587 37,000  Level Winnipeg Center
Sun 12:24:10 AM 49.8667 -84.2500 59° Northeast 500 575 37,000  Level Winnipeg Center
Sun 12:25:10 AM 49.9333 -84.0833 58° Northeast 500 575 37,000  Level Winnipeg Center
Sun 12:26:10 AM 50.0167 -83.9000 55° Northeast 500 575 37,000  Level Winnipeg Center
Sun 12:27:10 AM 50.0833 -83.7167 60° Northeast 500 575 37,000  Level Winnipeg Center
Sun 12:28:10 AM 50.1500 -83.5167 62° Northeast 500 575 37,000  Level Winnipeg Center
Sun 12:29:10 AM 50.2333 -83.3333 55° Northeast 500 575 37,000  Level Winnipeg Center
Sun 12:30:10 AM 50.3000 -83.1500 60° Northeast 500 575 37,000  Level Winnipeg Center
Sun 12:31:10 AM 50.3833 -82.9667 54° Northeast 500 575 37,000  Level Winnipeg Center
Sun 12:32:10 AM 50.4333 -82.8000 65° Northeast 500 575 37,000  Level Winnipeg Center
Sun 12:33:10 AM 50.5167 -82.6167 54° Northeast 500 575 37,000  Level Winnipeg Center
Sun 12:34:10 AM 50.6000 -82.4333 54° Northeast 500 575 37,000  Level Winnipeg Center
Sun 12:35:10 AM 50.6500 -82.2167 70° East 500 575 37,000  Level Winnipeg Center
Sun 12:36:10 AM 50.7333 -82.0333 54° Northeast 500 575 37,000  Level Winnipeg Center
Sun 12:37:10 AM 50.7833 -81.8500 67° East 500 575 37,000  Level Winnipeg Center
Sun 12:38:10 AM 50.8667 -81.6667 54° Northeast 500 575 37,000  Level Winnipeg Center
Sun 12:39:10 AM 50.9333 -81.4833 60° Northeast 500 575 37,000  Level Winnipeg Center
Sun 12:40:10 AM 51.0000 -81.2667 64° Northeast 500 575 37,000  Level Winnipeg Center
Sun 12:41:10 AM 51.0833 -81.0833 54° Northeast 500 575 37,000  Level Winnipeg Center
Sun 12:42:10 AM 51.1500 -80.8833 62° Northeast 500 575 37,000  Level Winnipeg Center
Sun 12:43:10 AM 51.2167 -80.7000 60° Northeast 500 575 37,000  Level Winnipeg Center
Sun 12:44:10 AM 51.2833 -80.4833 64° Northeast 500 575 37,000  Level Winnipeg Center
Sun 12:45:10 AM 51.3167 -80.2833 75° East 510 587 37,000  Level Winnipeg Center
Sun 12:46:10 AM 51.3500 -80.0833 75° East 510 587 37,000  Level Winnipeg Center
Sun 12:47:10 AM 51.3833 -79.8500 77° East 510 587 37,000  Level Winnipeg Center
Sun 12:48:10 AM 51.4333 -79.6333 70° East 510 587 37,000  Level Winnipeg Center
Sun 12:49:10 AM 51.4667 -79.4000 77° East 510 587 37,000  Level Winnipeg Center
Sun 12:50:18 AM 51.5333 -79.2667 51° Northeast 500 575 37,000  Level Montreal Center
Sun 12:51:18 AM 51.5667 -79.0500 76° East 500 575 37,000  Level Montreal Center
Sun 12:52:18 AM 51.6000 -78.8333 76° East 500 575 37,000  Level Montreal Center
Sun 12:53:18 AM 51.6500 -78.6167 70° East 500 575 37,000  Level Montreal Center
Sun 12:54:18 AM 51.6667 -78.4000 83° East 500 575 37,000  Level Montreal Center
Sun 12:55:18 AM 51.7000 -78.2000 75° East 500 575 37,000  Level Montreal Center
Sun 12:56:18 AM 51.7500 -77.9500 72° East 500 575 37,000  Level Montreal Center
Sun 12:57:18 AM 51.7833 -77.7333 76° East 500 575 37,000  Level Montreal Center
Sun 12:58:18 AM 51.8167 -77.5167 76° East 500 575 37,000  Level Montreal Center
Sun 12:59:18 AM 51.8500 -77.3000 76° East 500 575 37,000  Level Montreal Center
Sun 01:00:18 AM 51.8833 -77.0833 76° East 500 575 37,000  Level Montreal Center
Sun 01:01:18 AM 51.9167 -76.8667 76° East 500 575 37,000  Level Montreal Center
Sun 01:02:18 AM 51.9333 -76.6500 83° East 500 575 37,000  Level Montreal Center
Sun 01:03:18 AM 51.9833 -76.4333 69° East 490 564 37,000  Level Montreal Center
Sun 01:04:18 AM 52.0167 -76.2167 76° East 490 564 37,000  Level Montreal Center
Sun 01:05:18 AM 52.0500 -75.9667 78° East 500 575 37,000  Level Montreal Center
Sun 01:06:18 AM 52.0833 -75.7667 75° East 500 575 37,000  Level Montreal Center
Sun 01:07:18 AM 52.1167 -75.5500 76° East 500 575 37,000  Level Montreal Center
Sun 01:08:18 AM 52.1500 -75.3000 78° East 490 564 37,000  Level Montreal Center
Sun 01:09:18 AM 52.1833 -75.0833 76° East 490 564 37,000  Level Montreal Center
Sun 01:10:18 AM 52.1833 -74.8667 90° East 500 575 37,000  Level Montreal Center
Sun 01:11:18 AM 52.2167 -74.6500 76° East 500 575 37,000  Level Montreal Center
Sun 01:12:18 AM 52.2500 -74.4167 77° East 490 564 37,000  Level Montreal Center
Sun 01:13:18 AM 52.2833 -74.2333 73° East 490 564 37,000  Level Montreal Center
Sun 01:14:18 AM 52.3167 -73.9833 78° East 490 564 37,000  Level Montreal Center
Sun 01:15:18 AM 52.3333 -73.7667 83° East 490 564 37,000  Level Montreal Center
Sun 01:16:18 AM 52.3500 -73.5333 83° East 500 575 37,000  Level Montreal Center
Sun 01:17:18 AM 52.3833 -73.3167 76° East 490 564 37,000  Level Montreal Center
Sun 01:18:18 AM 52.4167 -73.1167 75° East 490 564 37,000  Level Montreal Center
Sun 01:19:18 AM 52.4333 -72.8667 84° East 490 564 37,000  Level Montreal Center
Sun 01:20:18 AM 52.4500 -72.6833 81° East 490 564 37,000  Level Montreal Center
Sun 01:21:18 AM 52.4833 -72.4500 77° East 490 564 37,000  Level Montreal Center
Sun 01:22:18 AM 52.5000 -72.2333 83° East 490 564 37,000  Level Montreal Center
Sun 01:23:18 AM 52.5333 -72.0000 77° East 480 552 37,000  Level Montreal Center
Sun 01:24:18 AM 52.5500 -71.7833 83° East 490 564 37,000  Level Montreal Center
Sun 01:25:18 AM 52.5833 -71.5500 77° East 490 564 37,000  Level Montreal Center
Sun 01:26:18 AM 52.6000 -71.3333 83° East 490 564 37,000  Level Montreal Center
Sun 01:27:18 AM 52.6167 -71.1167 83° East 490 564 37,000  Level Montreal Center
Sun 01:28:18 AM 52.6333 -70.8833 83° East 480 552 37,000  Level Montreal Center
Sun 01:29:18 AM 52.6667 -70.6833 75° East 490 564 37,000  Level Montreal Center
Sun 01:30:18 AM 52.6833 -70.4667 83° East 480 552 37,000  Level Montreal Center
Sun 01:31:18 AM 52.7000 -70.2167 84° East 490 564 37,000  Level Montreal Center
Sun 01:32:18 AM 52.7167 -69.9833 83° East 490 564 37,000  Level Montreal Center
Sun 01:33:18 AM 52.7333 -69.7833 82° East 480 552 37,000  Level Montreal Center
Sun 01:34:18 AM 52.7667 -69.5667 76° East 490 564 37,000  Level Montreal Center
Sun 01:34:46 AM 52.7667 -69.5000 90° East 500 575 37,000  Level Gander Center
Sun 01:35:46 AM 52.7833 -69.2833 83° East 490 564 37,000  Level Gander Center
Sun 01:36:18 AM 52.8000 -69.1000 81° East 490 564 37,000  Level Montreal Center
Sun 01:37:18 AM 52.8167 -68.8833 83° East 490 564 37,000  Level Montreal Center
Sun 01:37:46 AM 52.8333 -68.8167 67° East 490 564 37,000  Level Gander Center
Sun 01:38:46 AM 52.8667 -68.6000 76° East 490 564 37,000  Level Gander Center
Sun 01:39:18 AM 52.9000 -68.4500 70° East 490 564 37,000  Level Montreal Center
Sun 01:40:18 AM 52.9333 -68.2500 74° East 480 552 37,000  Level Montreal Center
Sun 01:41:18 AM 52.9833 -68.0333 69° East 480 552 37,000  Level Montreal Center
Sun 01:42:18 AM 53.0167 -67.8000 77° East 480 552 37,000  Level Montreal Center
Sun 01:43:18 AM 53.0667 -67.5667 70° East 490 564 37,000  Level Montreal Center
Sun 01:44:18 AM 53.1000 -67.3667 74° East 490 564 37,000  Level Montreal Center
Sun 01:44:46 AM 53.1333 -67.3000 50° Northeast 500 575 37,000  Level Gander Center
Sun 01:45:46 AM 53.1500 -67.0833 83° East 490 564 37,000  Level Gander Center
Sun 01:46:18 AM 53.1833 -66.9333 70° East 490 564 37,000  Level Montreal Center
Sun 01:47:18 AM 53.2333 -66.6833 71° East 510 587 37,000  Level Montreal Center
Sun 01:48:18 AM 53.2667 -66.4833 74° East 490 564 37,000  Level Montreal Center
Sun 01:49:18 AM 53.3167 -66.2500 70° East 510 587 37,000  Level Montreal Center
Sun 01:50:18 AM 53.3500 -66.0167 76° East 500 575 37,000  Level Montreal Center
Sun 01:50:46 AM 53.3500 -65.9667 90° East 500 575 37,000  Level Gander Center
Sun 01:51:18 AM 53.3833 -65.8000 71° East 490 564 37,000  Level Montreal Center
Sun 01:52:18 AM 53.4167 -65.6000 74° East 490 564 37,000  Level Montreal Center
Sun 01:52:46 AM 53.4333 -65.5167 71° East 510 587 37,000  Level Gander Center
Sun 01:53:46 AM 53.4667 -65.3000 75° East 490 564 37,000  Level Gander Center
Sun 01:54:46 AM 53.5000 -65.0833 75° East 500 575 37,000  Level Gander Center
Sun 01:55:46 AM 53.5500 -64.8500 70° East 500 575 37,000  Level Gander Center
Sun 01:56:46 AM 53.5833 -64.6333 75° East 490 564 37,000  Level Gander Center
Sun 01:57:46 AM 53.6167 -64.3833 77° East 500 575 37,000  Level Gander Center
Sun 01:58:46 AM 53.6500 -64.1667 75° East 500 575 37,000  Level Gander Center
Sun 01:59:46 AM 53.6833 -63.9333 76° East 500 575 37,000  Level Gander Center
Sun 02:00:46 AM 53.7167 -63.7167 75° East 500 575 37,000  Level Gander Center
Sun 02:01:46 AM 53.7667 -63.4833 70° East 500 575 37,000  Level Gander Center
Sun 02:02:46 AM 53.7833 -63.2667 82° East 500 575 37,000  Level Gander Center
Sun 02:03:46 AM 53.8167 -63.0333 76° East 500 575 37,000  Level Gander Center
Sun 02:04:46 AM 53.8500 -62.7833 77° East 500 575 37,000  Level Gander Center
Sun 02:05:46 AM 53.8833 -62.5667 75° East 500 575 37,000  Level Gander Center
Sun 02:06:46 AM 53.9167 -62.3333 76° East 500 575 37,000  Level Gander Center
Sun 02:07:46 AM 53.9500 -62.1000 76° East 500 575 37,000  Level Gander Center
Sun 02:08:46 AM 53.9833 -61.8833 75° East 510 587 37,000  Level Gander Center
Sun 02:09:46 AM 54.0167 -61.6167 78° East 510 587 37,000  Level Gander Center
Sun 02:10:46 AM 54.0333 -61.4000 82° East 510 587 37,000  Level Gander Center
Sun 02:11:35 AM 54.0667 -61.2000 74° East 510 587 37,000  Level Gander Center
Sun 02:12:35 AM 54.1000 -60.9667 76° East 510 587 37,000  Level Gander Center
Sun 02:13:35 AM 54.1333 -60.7167 77° East 510 587 37,000  Level Gander Center
Sun 02:14:35 AM 54.1500 -60.4833 83° East 510 587 37,000  Level Gander Center
Sun 02:15:35 AM 54.1833 -60.2500 76° East 510 587 37,000  Level Gander Center
Sun 02:16:35 AM 54.2167 -60.0167 76° East 510 587 37,000  Level Gander Center
Sun 02:17:35 AM 54.2333 -59.7667 83° East 510 587 37,000  Level Gander Center
Sun 02:18:35 AM 54.2667 -59.5333 76° East 510 587 37,000  Level Gander Center
Sun 02:19:35 AM 54.2833 -59.2833 83° East 510 587 37,000  Level Gander Center
Sun 02:20:35 AM 54.3167 -59.0500 76° East 510 587 37,000  Level Gander Center
Sun 02:21:35 AM 54.3333 -58.7833 84° East 510 587 37,000  Level Gander Center
Sun 02:22:35 AM 54.3667 -58.5500 76° East 510 587 37,000  Level Gander Center
Sun 02:23:35 AM 54.4000 -58.3167 76° East 510 587 37,000  Level Gander Center
Sun 02:24:35 AM 54.4000 -58.1000 90° East 510 587 37,000  Level Gander Center
Sun 02:25:35 AM 54.4333 -57.8667 76° East 510 587 37,000  Level Gander Center
Sun 02:26:35 AM 54.4667 -57.6000 78° East 510 587 37,000  Level Gander Center
Sun 02:27:35 AM 54.4833 -57.3667 83° East 510 587 37,000  Level Gander Center
Sun 02:28:35 AM 54.5167 -57.1000 78° East 510 587 37,000  Level Gander Center
Sun 02:29:35 AM 54.5167 -56.8833 90° East 520 598 37,000  Level Gander Center
Sun 02:30:35 AM 54.5500 -56.6500 76° East 520 598 37,000  Level Gander Center
Sun 02:31:35 AM 54.5667 -56.3833 84° East 520 598 37,000  Level Gander Center
Sun 02:32:35 AM 54.6000 -56.1500 76° East 520 598 37,000  Level Gander Center
Sun 02:33:35 AM 54.6167 -55.8833 84° East 520 598 37,000  Level Gander Center
Sun 02:34:35 AM 54.6500 -55.6500 76° East 520 598 37,000  Level Gander Center
Sun 02:35:35 AM 54.7333 -55.4000 60° Northeast 530 610 37,000  Level Gander Center
Sun 02:36:35 AM 54.7833 -55.2000 66° East 530 610 37,000  Level Gander Center
Sun 02:37:35 AM 54.8333 -54.9500 71° East 530 610 37,000  Level Gander Center
Sun 02:38:35 AM 54.9000 -54.7167 64° Northeast 530 610 37,000  Level Gander Center
Sun 02:39:35 AM 54.9667 -54.5000 62° Northeast 530 610 37,000  Level Gander Center
Sun 02:40:35 AM 55.0167 -54.2500 71° East 530 610 37,000  Level Gander Center
Sun 02:41:35 AM 55.0667 -54.0333 68° East 530 610 37,000  Level Gander Center
Sun 02:42:35 AM 55.1333 -53.8000 63° Northeast 530 610 37,000  Level Gander Center
Sun 02:43:35 AM 55.2000 -53.5500 65° Northeast 530 610 37,000  Level Gander Center
Sun 02:44:35 AM 55.2500 -53.3000 71° East 530 610 37,000  Level Gander Center
Sun 02:45:35 AM 55.3167 -53.0500 65° Northeast 530 610 37,000  Level Gander Center
Sun 02:46:35 AM 55.3667 -52.8000 71° East 530 610 37,000  Level Gander Center
Sun 02:47:35 AM 55.4167 -52.5833 68° East 540 621 37,000  Level Gander Center
Sun 02:48:35 AM 55.4667 -52.3333 70° East 540 621 37,000  Level Gander Center
Sun 02:49:35 AM 55.5333 -52.0833 65° Northeast 540 621 37,000  Level Gander Center
Sun 02:50:35 AM 55.5833 -51.8333 70° East 540 621 37,000  Level Gander Center
Sun 02:51:35 AM 55.6500 -51.6167 61° Northeast 540 621 37,000  Level Gander Center
Sun 02:52:35 AM 55.7000 -51.3333 73° East 540 621 37,000  Level Gander Center
Sun 02:53:35 AM 55.7500 -51.1167 68° East 540 621 37,000  Level Gander Center
Sun 02:54:46 AM 55.8167 -50.8000 69° East 540 621 37,000  Level Gander Center
Sun 02:56:00 AM 55.8812 -50.5219 67° East  Level FlightAware Approximate
Sun 03:03:00 AM 56.2598 -48.9439 66° East  Level FlightAware Approximate
Sun 03:04:00 AM 56.3140 -48.7172 67° East  Level FlightAware Approximate
Sun 03:05:00 AM 56.3677 -48.4898 67° East  Level FlightAware Approximate
Sun 03:06:00 AM 56.4210 -48.2619 67° East  Level FlightAware Approximate
Sun 03:06:50 AM 56.5167 -47.7333 68° East 550 633 37,000  Level Gander Center
Sun 03:07:00 AM 56.4739 -48.0332 67° East  Level FlightAware Approximate
Sun 03:07:50 AM 56.5833 -47.4667 65° Northeast 550 633 37,000  Level Gander Center
Sun 03:08:00 AM 56.5264 -47.8040 67° East  Level FlightAware Approximate
Sun 03:08:50 AM 56.6333 -47.2000 71° East 560 644 37,000  Level Gander Center
Sun 03:09:00 AM 56.5785 -47.5741 68° East  Level FlightAware Approximate
Sun 03:09:50 AM 56.6833 -46.9500 70° East 560 644 37,000  Level Gander Center
Sun 03:10:00 AM 56.6301 -47.3436 68° East  Level FlightAware Approximate
Sun 03:10:50 AM 56.7500 -46.6833 65° Northeast 550 633 37,000  Level Gander Center
Sun 03:11:00 AM 56.6813 -47.1125 68° East  Level FlightAware Approximate
Sun 03:11:50 AM 56.8000 -46.4167 71° East 550 633 37,000  Level Gander Center
Sun 03:12:00 AM 56.7321 -46.8807 68° East  Level FlightAware Approximate
Sun 03:12:50 AM 56.8667 -46.1833 62° Northeast 550 633 37,000  Level Gander Center
Sun 03:13:50 AM 56.9167 -45.9000 72° East 560 644 37,000  Level Gander Center
Sun 03:14:50 AM 56.9667 -45.6333 71° East 560 644 37,000  Level Gander Center
Sun 03:15:50 AM 57.0333 -45.3667 65° Northeast 560 644 37,000  Level Gander Center
Sun 03:16:50 AM 57.0833 -45.1167 70° East 560 644 37,000  Level Gander Center
Sun 03:17:50 AM 57.1333 -44.8500 71° East 560 644 37,000  Level Gander Center
Sun 03:18:50 AM 57.1833 -44.5833 71° East 560 644 37,000  Level Gander Center
Sun 03:19:50 AM 57.2333 -44.3000 72° East 560 644 37,000  Level Gander Center
Sun 03:20:50 AM 57.2833 -44.0500 70° East 560 644 37,000  Level Gander Center
Sun 03:21:50 AM 57.3333 -43.7833 71° East 560 644 37,000  Level Gander Center
Sun 03:22:50 AM 57.3833 -43.5000 72° East 560 644 37,000  Level Gander Center
Sun 03:23:50 AM 57.4333 -43.2167 72° East 560 644 37,000  Level Gander Center
Sun 03:24:50 AM 57.4833 -42.9833 68° East 560 644 37,000  Level Gander Center
Sun 03:25:50 AM 57.5333 -42.7000 72° East 560 644 37,000  Level Gander Center
Sun 03:26:50 AM 57.5833 -42.4167 72° East 560 644 37,000  Level Gander Center
Sun 03:27:50 AM 57.6167 -42.1333 77° East 560 644 37,000  Level Gander Center
Sun 03:28:50 AM 57.6667 -41.8667 71° East 560 644 37,000  Level Gander Center
Sun 03:29:50 AM 57.7167 -41.6167 69° East 560 644 37,000  Level Gander Center
Sun 03:30:50 AM 57.7500 -41.3333 77° East 560 644 37,000  Level Gander Center
Sun 03:31:50 AM 57.8167 -41.0333 67° East 560 644 37,000  Level Gander Center
Sun 03:32:50 AM 57.8500 -40.7500 77° East 560 644 37,000  Level Gander Center
Sun 03:33:50 AM 57.9000 -40.4667 72° East 560 644 37,000  Level Gander Center
Sun 03:34:50 AM 57.9333 -40.2167 76° East 560 644 37,000  Level Gander Center
Sun 03:35:50 AM 57.9833 -39.9333 71° East 560 644 37,000  Level Gander Center
Sun 03:36:50 AM 58.0000 -39.6667 83° East 560 644 37,000  Level Gander Center
Sun 03:37:50 AM 58.0000 -39.3667 90° East 560 644 37,000  Level Gander Center
Sun 03:38:50 AM 58.0167 -39.0667 84° East 550 633 37,000  Level Gander Center
Sun 03:39:50 AM 58.0333 -38.8000 83° East 550 633 37,000  Level Gander Center
Sun 03:40:50 AM 58.0500 -38.5000 84° East 550 633 37,000  Level Gander Center
Sun 03:41:50 AM 58.0500 -38.2333 90° East 550 633 37,000  Level Gander Center
Sun 03:42:50 AM 58.0500 -37.9333 90° East 550 633 37,000  Level Gander Center
Sun 03:43:50 AM 58.0500 -37.6333 90° East 550 633 37,000  Level Gander Center
Sun 03:44:50 AM 58.0667 -37.3667 83° East 550 633 37,000  Level Gander Center
Sun 03:45:50 AM 58.0667 -37.0500 90° East 560 644 37,000  Level Gander Center
Sun 03:46:50 AM 58.0667 -36.8000 90° East 560 644 37,000  Level Gander Center
Sun 03:47:50 AM 58.0667 -36.5000 90° East 550 633 37,000  Level Gander Center
Sun 03:48:50 AM 58.0833 -36.2000 84° East 560 644 37,000  Level Gander Center
Sun 03:49:50 AM 58.0833 -35.9333 90° East 560 644 37,000  Level Gander Center
Sun 03:51:00 AM 58.0858 -35.6313 89° East  Level FlightAware Approximate
Sun 03:58:00 AM 58.0853 -33.8186 89° East  Level FlightAware Approximate
Sun 03:59:00 AM 58.0831 -33.5597 91° East  Level FlightAware Approximate
Sun 04:00:00 AM 58.0805 -33.3008 91° East  Level FlightAware Approximate
Sun 04:01:00 AM 58.0773 -33.0420 91° East  Level FlightAware Approximate
Sun 04:02:00 AM 58.0735 -32.7832 91° East  Level FlightAware Approximate
Sun 04:03:00 AM 58.0692 -32.5245 92° East  Level FlightAware Approximate
Sun 04:04:00 AM 58.0645 -32.2658 92° East  Level FlightAware Approximate
Sun 04:05:00 AM 58.0592 -32.0072 92° East  Level FlightAware Approximate
Sun 04:06:00 AM 58.0533 -31.7487 92° East  Level FlightAware Approximate
Sun 04:07:00 AM 58.0470 -31.4903 93° East  Level FlightAware Approximate
Sun 04:08:00 AM 58.0401 -31.2320 93° East  Level FlightAware Approximate
Sun 04:09:00 AM 58.0327 -30.9738 93° East  Level FlightAware Approximate
Sun 04:10:00 AM 58.0247 -30.7157 93° East  Level FlightAware Approximate
Sun 04:11:00 AM 58.0163 -30.4577 93° East  Level FlightAware Approximate
Sun 04:12:00 AM 58.0073 -30.1999 94° East  Level FlightAware Approximate
Sun 04:13:00 AM 57.9965 -29.9423 96° East  Level FlightAware Approximate
Sun 04:14:00 AM 57.9808 -29.6857 96° East  Level FlightAware Approximate
Sun 04:15:00 AM 57.9645 -29.4294 97° East  Level FlightAware Approximate
Sun 04:16:00 AM 57.9477 -29.1734 97° East  Level FlightAware Approximate
Sun 04:17:00 AM 57.9304 -28.9175 97° East  Level FlightAware Approximate
Sun 04:18:00 AM 57.9126 -28.6620 97° East  Level FlightAware Approximate
Sun 04:19:00 AM 57.8943 -28.4067 98° East  Level FlightAware Approximate
Sun 04:20:00 AM 57.8755 -28.1516 98° East  Level FlightAware Approximate
Sun 04:21:00 AM 57.8561 -27.8968 98° East  Level FlightAware Approximate
Sun 04:22:00 AM 57.8363 -27.6423 98° East  Level FlightAware Approximate
Sun 04:23:00 AM 57.8159 -27.3881 98° East  Level FlightAware Approximate
Sun 04:24:00 AM 57.7950 -27.1342 99° East  Level FlightAware Approximate
Sun 04:25:00 AM 57.7737 -26.8805 99° East  Level FlightAware Approximate
Sun 04:26:00 AM 57.7518 -26.6272 99° East  Level FlightAware Approximate
Sun 04:27:00 AM 57.7294 -26.3742 99° East  Level FlightAware Approximate
Sun 04:28:00 AM 57.7065 -26.1215 100° East  Level FlightAware Approximate
Sun 04:29:00 AM 57.6831 -25.8691 100° East  Level FlightAware Approximate
Sun 04:30:00 AM 57.6592 -25.6171 100° East  Level FlightAware Approximate
Sun 04:31:00 AM 57.6348 -25.3653 100° East  Level FlightAware Approximate
Sun 04:32:00 AM 57.6099 -25.1140 100° East  Level FlightAware Approximate
Sun 04:33:00 AM 57.5845 -24.8629 101° East  Level FlightAware Approximate
Sun 04:34:00 AM 57.5586 -24.6123 101° East  Level FlightAware Approximate
Sun 04:35:00 AM 57.5322 -24.3619 101° East  Level FlightAware Approximate
Sun 04:36:00 AM 57.5057 -24.1119 101° East  Level FlightAware Approximate
Sun 04:37:00 AM 57.4791 -23.8620 101° East  Level FlightAware Approximate
Sun 04:38:00 AM 57.4521 -23.6124 101° East  Level FlightAware Approximate
Sun 04:39:00 AM 57.4246 -23.3633 101° East  Level FlightAware Approximate
Sun 04:40:00 AM 57.3966 -23.1145 102° East  Level FlightAware Approximate
Sun 04:41:00 AM 57.3681 -22.8661 102° East  Level FlightAware Approximate
Sun 04:42:00 AM 57.3391 -22.6181 102° East  Level FlightAware Approximate
Sun 04:43:00 AM 57.3096 -22.3705 102° East  Level FlightAware Approximate
Sun 04:44:00 AM 57.2796 -22.1233 103° East  Level FlightAware Approximate
Sun 04:45:00 AM 57.2492 -21.8765 103° East  Level FlightAware Approximate
Sun 04:46:00 AM 57.2182 -21.6301 103° East  Level FlightAware Approximate
Sun 04:47:00 AM 57.1868 -21.3841 103° East  Level FlightAware Approximate
Sun 04:48:00 AM 57.1549 -21.1385 103° East  Level FlightAware Approximate
Sun 04:49:00 AM 57.1225 -20.8934 104° East  Level FlightAware Approximate
Sun 04:50:00 AM 57.0897 -20.6487 104° East  Level FlightAware Approximate
Sun 04:51:00 AM 57.0564 -20.4044 104° East  Level FlightAware Approximate
Sun 04:52:00 AM 57.0226 -20.1606 104° East  Level FlightAware Approximate
Sun 04:53:00 AM 56.9812 -19.9218 114° Southeast  Level FlightAware Approximate
Sun 04:54:00 AM 56.9256 -19.6924 114° Southeast  Level FlightAware Approximate
Sun 04:55:00 AM 56.8696 -19.4636 114° Southeast  Level FlightAware Approximate
Sun 04:56:00 AM 56.8132 -19.2356 114° Southeast  Level FlightAware Approximate
Sun 04:57:00 AM 56.7564 -19.0083 114° Southeast  Level FlightAware Approximate
Sun 04:58:00 AM 56.6991 -18.7816 115° Southeast  Level FlightAware Approximate
Sun 04:59:00 AM 56.6415 -18.5556 115° Southeast  Level FlightAware Approximate
Sun 05:00:00 AM 56.5834 -18.3304 115° Southeast  Level FlightAware Approximate
Sun 05:01:00 AM 56.5250 -18.1058 115° Southeast  Level FlightAware Approximate
Sun 05:02:00 AM 56.4661 -17.8819 115° Southeast  Level FlightAware Approximate
Sun 05:03:00 AM 56.4068 -17.6587 116° Southeast  Level FlightAware Approximate
Sun 05:04:00 AM 56.3471 -17.4362 116° Southeast  Level FlightAware Approximate
Sun 05:05:00 AM 56.2871 -17.2144 116° Southeast  Level FlightAware Approximate
Sun 05:06:00 AM 56.2266 -16.9932 116° Southeast  Level FlightAware Approximate
Sun 05:07:00 AM 56.1658 -16.7728 116° Southeast  Level FlightAware Approximate
Sun 05:08:00 AM 56.1045 -16.5531 116° Southeast  Level FlightAware Approximate
Sun 05:09:00 AM 56.0429 -16.3341 117° Southeast  Level FlightAware Approximate
Sun 05:10:00 AM 55.9809 -16.1158 117° Southeast  Level FlightAware Approximate
Sun 05:11:00 AM 55.9185 -15.8982 117° Southeast  Level FlightAware Approximate
Sun 05:12:00 AM 55.8557 -15.6813 117° Southeast  Level FlightAware Approximate
Sun 05:12:12 AM 55.4250 -13.3260 117° Southeast 546 628 37,000  Level FlightAware ADS-B
Sun 05:12:57 AM 55.3640 -13.1540 122° Southeast 544 626 37,000  Level FlightAware ADS-B
Sun 05:13:00 AM 55.7925 -15.4651 117° Southeast  Level FlightAware Approximate
Sun 05:13:42 AM 55.3040 -12.9870 122° Southeast 542 624 37,000  Level FlightAware ADS-B
Sun 05:14:32 AM 55.2370 -12.8040 123° Southeast 544 626 37,000  Level FlightAware ADS-B
Sun 05:15:12 AM 55.1820 -12.6520 122° Southeast 542 624 37,000  Level FlightAware ADS-B
Sun 05:15:47 AM 55.1340 -12.5200 122° Southeast 540 621 37,000  Level FlightAware ADS-B
Sun 05:16:27 AM 55.0810 -12.3770 123° Southeast 539 620 37,000  Level FlightAware ADS-B
Sun 05:17:12 AM 55.0210 -12.2140 123° Southeast 535 616 37,000  Level FlightAware ADS-B
Sun 05:18:07 AM 54.9490 -12.0230 123° Southeast 533 613 37,000  Level FlightAware ADS-B
Sun 05:18:52 AM 54.8870 -11.8570 123° Southeast 533 613 37,000  Level FlightAware ADS-B
Sun 05:19:32 AM 54.8310 -11.7080 123° Southeast 533 613 37,000  Level FlightAware ADS-B
Sun 05:20:12 AM 54.7800 -11.5770 124° Southeast 532 612 37,000  Level FlightAware ADS-B
Sun 05:20:52 AM 54.7270 -11.4370 123° Southeast 530 610 37,000  Level FlightAware ADS-B
Sun 05:21:37 AM 54.6630 -11.2720 124° Southeast 530 610 37,000  Level FlightAware ADS-B
Sun 05:22:22 AM 54.6020 -11.1140 124° Southeast 531 611 37,000  Level FlightAware ADS-B
Sun 05:22:52 AM 54.5590 -11.0030 124° Southeast 525 604 37,000  Level FlightAware ADS-B
Sun 05:23:42 AM 54.4900 -10.8280 124° Southeast 522 601 37,000  Level FlightAware ADS-B
Sun 05:24:17 AM 54.4410 -10.7040 124° Southeast 521 600 37,000  Level FlightAware ADS-B
Sun 05:25:07 AM 54.3740 -10.5340 124° Southeast 520 598 37,000  Level FlightAware ADS-B
Sun 05:25:52 AM 54.3130 -10.3820 124° Southeast 520 598 37,000  Level FlightAware ADS-B
Sun 05:26:32 AM 54.2590 -10.2460 124° Southeast 515 593 37,000  Level FlightAware ADS-B
Sun 05:27:12 AM 54.2060 -10.1150 125° Southeast 514 592 37,000  Level FlightAware ADS-B
Sun 05:27:57 AM 54.1440 -9.9630 125° Southeast 515 593 37,000  Level FlightAware ADS-B
Sun 05:28:37 AM 54.0900 -9.8300 125° Southeast 512 589 37,000  Level FlightAware ADS-B
Sun 05:29:22 AM 54.0290 -9.6810 125° Southeast 509 586 37,000  Level FlightAware ADS-B
Sun 05:29:57 AM 53.9820 -9.5690 125° Southeast 506 582 37,000  Level FlightAware ADS-B
Sun 05:30:42 AM 53.9220 -9.4250 125° Southeast 503 579 37,000  Level FlightAware ADS-B
Sun 05:31:27 AM 53.8620 -9.2800 125° Southeast 502 578 37,000  Level FlightAware ADS-B
Sun 05:32:02 AM 53.8220 -9.1850 125° Southeast 502 578 37,000  Level FlightAware ADS-B
Sun 05:32:47 AM 53.7590 -9.0360 126° Southeast 500 575 37,000 -1,406 Level FlightAware ADS-B
Sun 05:33:06 AM 53.7259 -8.9566 126° Southeast 470 541 35,500 -2,432 Descending FlightAware UK
Sun 05:33:24 AM 53.7018 -8.8999 126° Southeast 470 541 35,500  Level FlightAware UK
Sun 05:33:42 AM 53.6778 -8.8434 126° Southeast 470 541 35,500 3,913 Level FlightAware UK
Sun 05:33:47 AM 53.6760 -8.8400 126° Southeast 495 570 37,000  Climbing FlightAware ADS-B
Sun 05:34:06 AM 53.6459 -8.7682 126° Southeast 470 541 35,500  Descending FlightAware UK
Sun 05:34:22 AM 53.6310 -8.7340 126° Southeast 494 568 37,000  Climbing FlightAware ADS-B
Sun 05:34:42 AM 53.5977 -8.6562 126° Southeast 466 536 35,500 -2,368 Descending FlightAware UK
Sun 05:35:00 AM 53.5737 -8.6004 126° Southeast 470 541 35,500 4,500 Level FlightAware UK
Sun 05:35:02 AM 53.5760 -8.6050 126° Southeast 493 567 37,000  Climbing FlightAware ADS-B
Sun 05:35:18 AM 53.5497 -8.5447 126° Southeast 468 539 35,500 -2,647 Descending FlightAware UK
Sun 05:35:36 AM 53.5258 -8.4892 126° Southeast 464 534 35,500 3,103 Level FlightAware UK
Sun 05:35:47 AM 53.5160 -8.4680 126° Southeast 493 567 37,000  Climbing FlightAware ADS-B
Sun 05:36:06 AM 53.4852 -8.3962 126° Southeast 464 534 35,500 -2,432 Descending FlightAware UK
Sun 05:36:24 AM 53.4614 -8.3406 126° Southeast 466 536 35,500 4,286 Level FlightAware UK
Sun 05:36:27 AM 53.4620 -8.3430 126° Southeast 494 568 37,000  Climbing FlightAware ADS-B
Sun 05:36:42 AM 53.4372 -8.2852 126° Southeast 472 543 35,500 -2,727 Descending FlightAware UK
Sun 05:37:00 AM 53.4130 -8.2299 126° Southeast 472 543 35,500 3,000 Level FlightAware UK
Sun 05:37:12 AM 53.4010 -8.2030 126° Southeast 491 565 37,000  Climbing FlightAware ADS-B
Sun 05:37:30 AM 53.3727 -8.1380 126° Southeast 470 541 35,500 -2,500 Descending FlightAware UK
Sun 05:37:48 AM 53.3486 -8.0829 126° Southeast 472 543 35,500 4,091 Level FlightAware UK
Sun 05:37:52 AM 53.3460 -8.0770 126° Southeast 490 564 37,000  Climbing FlightAware ADS-B
Sun 05:38:12 AM 53.3164 -8.0097 126° Southeast 474 545 35,500 -2,368 Descending FlightAware UK
Sun 05:38:30 AM 53.2923 -7.9549 126° Southeast 472 543 35,500 4,500 Level FlightAware UK
Sun 05:38:32 AM 53.2970 -7.9660 126° Southeast 488 562 37,000  Climbing FlightAware ADS-B
Sun 05:38:48 AM 53.2683 -7.9004 126° Southeast 474 545 35,500 -2,647 Descending FlightAware UK
Sun 05:39:06 AM 53.2444 -7.8461 126° Southeast 470 541 35,500 3,103 Level FlightAware UK
Sun 05:39:17 AM 53.2330 -7.8210 126° Southeast 483 556 37,000  Climbing FlightAware ADS-B
Sun 05:39:36 AM 53.2046 -7.7568 126° Southeast 472 543 35,500 -2,432 Descending FlightAware UK
Sun 05:39:54 AM 53.1809 -7.7036 127° Southeast 468 539 35,500 4,286 Level FlightAware UK
Sun 05:39:57 AM 53.1810 -7.7050 127° Southeast 480 552 37,000  Climbing FlightAware ADS-B
Sun 05:40:12 AM 53.1572 -7.6506 127° Southeast 474 545 35,500 -2,727 Descending FlightAware UK
Sun 05:40:30 AM 53.1335 -7.5974 127° Southeast 468 539 35,500 3,000 Level FlightAware UK
Sun 05:40:42 AM 53.1200 -7.5680 127° Southeast 478 550 37,000  Climbing FlightAware ADS-B
Sun 05:41:00 AM 53.0940 -7.5090 127° Southeast 468 539 35,500 -2,500 Descending FlightAware UK
Sun 05:41:18 AM 53.0704 -7.4561 127° Southeast 466 536 35,500 4,091 Level FlightAware UK
Sun 05:41:22 AM 53.0680 -7.4520 127° Southeast 476 548 37,000  Climbing FlightAware ADS-B
Sun 05:41:42 AM 53.0388 -7.3860 127° Southeast 470 541 35,500 -2,368 Descending FlightAware UK
Sun 05:42:00 AM 53.0151 -7.3338 127° Southeast 462 532 35,500 4,500 Level FlightAware UK
Sun 05:42:02 AM 53.0150 -7.3340 127° Southeast 474 545 37,000  Climbing FlightAware ADS-B
Sun 05:42:18 AM 52.9915 -7.2816 127° Southeast 460 529 35,500 -2,647 Descending FlightAware UK
Sun 05:42:36 AM 52.9677 -7.2293 127° Southeast 466 536 35,500 3,103 Level FlightAware UK
Sun 05:42:47 AM 52.9550 -7.2020 127° Southeast 478 550 37,000  Climbing FlightAware ADS-B
Sun 05:43:06 AM 52.9277 -7.1413 127° Southeast 466 536 35,500  Descending FlightAware UK
Sun 05:43:27 AM 52.9020 -7.0850 127° Southeast 479 551 37,000  Climbing FlightAware ADS-B
Sun 05:43:42 AM 52.8797 -7.0363 127° Southeast 472 543 35,500 -2,727 Descending FlightAware UK
Sun 05:44:00 AM 52.8559 -6.9835 127° Southeast 470 541 35,500 3,600 Level FlightAware UK
Sun 05:44:07 AM 52.8490 -6.9700 127° Southeast 476 548 37,000  Climbing FlightAware ADS-B
Sun 05:44:24 AM 52.8239 -6.9138 127° Southeast 468 539 35,500 -2,571 Descending FlightAware UK
Sun 05:44:42 AM 52.7998 -6.8618 127° Southeast 466 536 35,500 3,214 Level FlightAware UK
Sun 05:44:52 AM 52.7900 -6.8410 127° Southeast 476 548 37,000  Climbing FlightAware ADS-B
Sun 05:45:12 AM 52.7599 -6.7752 127° Southeast 468 539 35,500  Descending FlightAware UK
Sun 05:45:32 AM 52.7360 -6.7250 127° Southeast 477 549 37,000  Climbing FlightAware ADS-B
Sun 05:45:48 AM 52.7118 -6.6717 127° Southeast 472 543 35,500 -2,647 Descending FlightAware UK
Sun 05:46:06 AM 52.6877 -6.6199 127° Southeast 468 539 35,500 3,103 Level FlightAware UK
Sun 05:46:17 AM 52.6740 -6.5920 127° Southeast 477 549 37,000  Climbing FlightAware ADS-B
Sun 05:46:36 AM 52.6476 -6.5337 127° Southeast 460 529 35,500 -2,432 Descending FlightAware UK
Sun 05:46:54 AM 52.6234 -6.4819 128° Southeast 464 534 35,500 4,286 Level FlightAware UK
Sun 05:46:57 AM 52.6230 -6.4820 128° Southeast 484 557 37,000  Climbing FlightAware ADS-B
Sun 05:47:12 AM 52.5989 -6.4298 128° Southeast 476 548 35,500 -2,727 Descending FlightAware UK
Sun 05:47:30 AM 52.5739 -6.3766 128° Southeast 478 550 35,500 3,000 Level FlightAware UK
Sun 05:47:42 AM 52.5620 -6.3520 128° Southeast 482 555 37,000  Climbing FlightAware ADS-B
Sun 05:48:00 AM 52.5332 -6.2899 128° Southeast 474 545 35,500  Descending FlightAware UK
Sun 05:48:12 AM 52.5200 -6.2630 128° Southeast 479 551 37,000  Climbing FlightAware ADS-B
Sun 05:48:30 AM 52.4925 -6.2039 128° Southeast 470 541 35,500 -2,500 Descending FlightAware UK
Sun 05:48:48 AM 52.4682 -6.1526 128° Southeast 470 541 35,500 3,333 Level FlightAware UK
Sun 05:48:57 AM 52.4680 -6.1550 128° Southeast 478 550 37,000  Climbing FlightAware ADS-B
Sun 05:49:12 AM 52.4310 -6.0906 128° Southeast 468 539 35,500 -2,727 Descending FlightAware UK
Sun 05:49:30 AM 52.3998 -6.0502 142° Southeast 466 536 35,500 3,600 Level FlightAware UK
Sun 05:49:37 AM 52.3980 -6.0500 142° Southeast 483 556 37,000  Climbing FlightAware ADS-B
Sun 05:49:54 AM 52.3542 -6.0034 142° Southeast 470 541 35,500 -2,571 Descending FlightAware UK
Sun 05:50:12 AM 52.3193 -5.9678 148° Southeast 472 543 35,500 3,214 Level FlightAware UK
Sun 05:50:22 AM 52.3100 -5.9590 148° Southeast 488 562 37,000  Climbing FlightAware ADS-B
Sun 05:50:42 AM 52.2615 -5.9104 148° Southeast 468 539 35,500  Descending FlightAware UK
Sun 05:51:02 AM 52.2340 -5.8840 148° Southeast 491 565 37,000  Climbing FlightAware ADS-B
Sun 05:51:18 AM 52.1920 -5.8413 148° Southeast 472 543 35,500 -2,647 Descending FlightAware UK
Sun 05:51:36 AM 52.1571 -5.8066 149° Southeast 474 545 35,500 3,750 Level FlightAware UK
Sun 05:51:42 AM 52.1560 -5.8060 149° Southeast 492 566 37,000  Climbing FlightAware ADS-B
Sun 05:52:00 AM 52.1108 -5.7601 149° Southeast 472 543 35,500 -2,500 Descending FlightAware UK
Sun 05:52:18 AM 52.0760 -5.7253 148° Southeast 472 543 35,500 3,333 Level FlightAware UK
Sun 05:52:27 AM 52.0690 -5.7190 148° Southeast 491 565 37,000  Climbing FlightAware ADS-B
Sun 05:52:42 AM 52.0296 -5.6790 148° Southeast 470 541 35,500 -2,727 Descending FlightAware UK
Sun 05:53:00 AM 51.9948 -5.6443 148° Southeast 472 543 35,500 3,600 Level FlightAware UK
Sun 05:53:07 AM 51.9950 -5.6450 148° Southeast 491 565 37,000  Climbing FlightAware ADS-B
Sun 05:53:24 AM 51.9483 -5.5982 148° Southeast 472 543 35,500 -2,571 Descending FlightAware UK
Sun 05:53:42 AM 51.9135 -5.5637 149° Southeast 472 543 35,500 3,214 Level FlightAware UK
Sun 05:53:52 AM 51.8970 -5.5480 149° Southeast 491 565 37,000  Climbing FlightAware ADS-B
Sun 05:54:24 AM 51.8321 -5.4834 149° Southeast 470 541 35,500  Descending FlightAware UK
Sun 05:54:32 AM 51.8200 -5.4720 149° Southeast 493 567 37,000  Climbing FlightAware ADS-B
Sun 05:54:48 AM 51.7855 -5.4377 149° Southeast 468 539 35,500 -2,647 Descending FlightAware UK
Sun 05:55:06 AM 51.7505 -5.4033 149° Southeast 468 539 35,500 3,103 Level FlightAware UK
Sun 05:55:17 AM 51.7320 -5.3860 149° Southeast 497 572 37,000  Climbing FlightAware ADS-B
Sun 05:55:48 AM 51.6681 -5.3229 149° Southeast 470 541 35,500  Descending FlightAware UK
Sun 05:55:57 AM 51.6530 -5.3090 149° Southeast 500 575 37,000  Climbing FlightAware ADS-B
Sun 05:56:12 AM 51.6206 -5.2767 149° Southeast 472 543 35,500  Descending FlightAware UK
Sun 05:56:37 AM 51.5740 -5.2320 149° Southeast 501 577 37,000  Climbing FlightAware ADS-B
Sun 05:57:00 AM 51.5253 -5.1842 149° Southeast 472 543 35,500  Descending FlightAware UK
Sun 05:57:22 AM 51.4890 -5.1500 149° Southeast 501 577 37,000 1,452 Climbing FlightAware ADS-B
Sun 05:58:02 AM 51.4060 -5.0700 149° Southeast 503 579 37,000 -1,607 Level FlightAware ADS-B
Sun 05:58:18 AM 51.3703 -5.0347 149° Southeast 474 545 35,500 -2,647 Descending FlightAware UK
Sun 05:58:36 AM 51.3373 -4.9930 142° Southeast 474 545 35,500 3,103 Level FlightAware UK
Sun 05:58:47 AM 51.3240 -4.9730 142° Southeast 501 577 37,000  Climbing FlightAware ADS-B
Sun 05:59:06 AM 51.2910 -4.9111 142° Southeast 474 545 35,500  Descending FlightAware UK
Sun 05:59:27 AM 51.2650 -4.8590 142° Southeast 499 574 37,000 3,214 Climbing FlightAware ADS-B
Sun 05:59:34 AM 51.2518 -4.8309 127° Southeast 499 574 37,000 -3,333 Level FlightAware ADS-B
Sun 05:59:54 AM 51.2232 -4.7711 127° Southeast 476 548 35,500  Descending FlightAware UK
Sun 06:00:07 AM 51.2100 -4.7440 127° Southeast 494 568 37,000  Climbing FlightAware ADS-B
Sun 06:00:24 AM 51.1813 -4.6842 127° Southeast 476 548 35,500  Descending FlightAware UK
Sun 06:00:48 AM 51.1492 -4.6188 127° Southeast 495 570 37,000  Climbing FlightAware ADS-B
Sun 06:01:06 AM 51.1227 -4.5634 127° Southeast 476 548 35,500  Descending FlightAware UK
Sun 06:01:19 AM 51.1056 -4.5290 127° Southeast 493 567 37,000  Climbing FlightAware ADS-B
Sun 06:01:36 AM 51.0810 -4.4779 127° Southeast 478 550 35,500 -2,571 Descending FlightAware UK
Sun 06:01:54 AM 51.0562 -4.4271 128° Southeast 478 550 35,500 2,195 Level FlightAware UK
Sun 06:02:17 AM 51.0300 -4.3760 128° Southeast 486 559 37,000  Climbing FlightAware ADS-B
Sun 06:02:48 AM 50.9816 -4.2761 128° Southeast 474 545 35,500  Descending FlightAware UK
Sun 06:02:57 AM 50.9730 -4.2600 128° Southeast 483 556 37,000 1,837 Climbing FlightAware ADS-B
Sun 06:03:37 AM 50.9190 -4.1490 128° Southeast 483 556 37,000 -1,304 Level FlightAware ADS-B
Sun 06:04:06 AM 50.8801 -4.0536 128° Southeast 476 548 35,500  Descending FlightAware UK
Sun 06:04:22 AM 50.8640 -4.0120 128° Southeast 477 549 37,000 1,607 Climbing FlightAware ADS-B
Sun 06:05:02 AM 50.8183 -3.8888 120° Southeast 477 549 37,000 -1,579 Level FlightAware ADS-B
Sun 06:05:19 AM 50.7995 -3.8379 120° Southeast 476 548 35,500  Descending FlightAware UK
Sun 06:05:38 AM 50.7780 -3.7815 120° Southeast 475 547 37,000  Climbing FlightAware ADS-B
Sun 06:05:55 AM 50.7590 -3.7309 120° Southeast 478 550 35,500  Descending FlightAware UK
Sun 06:06:10 AM 50.7426 -3.6884 120° Southeast 474 545 37,000 -571 Climbing FlightAware ADS-B
Sun 06:06:37 AM 50.7120 -3.6065 120° Southeast 478 550 35,100 -1,263 Descending FlightAware UK
Sun 06:06:48 AM 50.6995 -3.5747 120° Southeast 476 548 36,200 -2,400 Climbing FlightAware ADS-B
Sun 06:07:07 AM 50.6780 -3.5178 120° Southeast 478 550 33,900 -1,371 Descending FlightAware UK
Sun 06:07:23 AM 50.6594 -3.4683 120° Southeast 483 556 35,400 -500 Climbing FlightAware ADS-B
Sun 06:07:43 AM 50.6372 -3.4080 120° Southeast 476 548 33,600 -833 Descending FlightAware UK
Sun 06:07:59 AM 50.6189 -3.3608 120° Southeast 477 549 34,900 667 Climbing FlightAware ADS-B
Sun 06:08:28 AM 50.5871 -3.2755 120° Southeast 459 528 34,100 -3,964 Descending FlightAware ADS-B
Sun 06:08:55 AM 50.5686 -3.1920 120° Southeast 476 548 31,200 -2,348 Descending FlightAware UK
Sun 06:09:14 AM 50.5659 -3.1327 120° Southeast 432 497 32,300 -1,333 Climbing FlightAware ADS-B
Sun 06:09:49 AM 50.5761 -3.0274 120° Southeast 452 520 30,000 -1,263 Descending FlightAware UK
Sun 06:09:52 AM 50.5760 -3.0260 120° Southeast 415 478 31,500 -1,333 Climbing FlightAware ADS-B
Sun 06:10:07 AM 50.5826 -2.9741 120° Southeast 462 532 29,600 -3,846 Descending FlightAware UK
Sun 06:10:31 AM 50.5912 -2.9018 79° East 466 536 29,000 2,000 Descending FlightAware UK
Sun 06:10:37 AM 50.5900 -2.9090 79° East 423 487 30,600 1,135 Climbing FlightAware ADS-B
Sun 06:11:08 AM 50.6039 -2.7908 79° East 421 484 29,700 -3,625 Descending FlightAware ADS-B
Sun 06:11:25 AM 50.6100 -2.7386 79° East 462 532 27,700 -4,286 Descending FlightAware UK
Sun 06:11:43 AM 50.6158 -2.6844 80° East 456 525 27,200 811 Descending FlightAware UK
Sun 06:12:02 AM 50.6200 -2.6440 80° East 421 484 28,200 -267 Climbing FlightAware ADS-B
Sun 06:12:28 AM 50.6285 -2.5496 82° East 425 489 27,000 -3,736 Descending FlightAware ADS-B
Sun 06:12:55 AM 50.6365 -2.4658 82° East 440 506 24,900 -1,317 Descending FlightAware UK
Sun 06:13:09 AM 50.6392 -2.4273 82° East 412 474 26,100 -1,600 Climbing FlightAware ADS-B
Sun 06:13:25 AM 50.6435 -2.3766 82° East 432 497 24,100 -1,167 Descending FlightAware UK
Sun 06:13:45 AM 50.6478 -2.3216 82° East 399 459 25,400 -1,000 Climbing FlightAware ADS-B
Sun 06:14:01 AM 50.6519 -2.2732 82° East 418 481 23,500 -1,125 Descending FlightAware UK
Sun 06:14:17 AM 50.6550 -2.2286 82° East 394 453 24,800 875 Climbing FlightAware ADS-B
Sun 06:14:49 AM 50.6618 -2.1391 83° East 392 451 24,200 -706 Descending FlightAware ADS-B
Sun 06:15:25 AM 50.6693 -2.0383 83° East 386 444 24,000 -2,000 Descending FlightAware ADS-B
Sun 06:15:43 AM 50.6732 -1.9852 83° East 410 472 22,400 -600 Descending FlightAware UK
Sun 06:15:55 AM 50.6755 -1.9531 83° East 384 442 23,700 -1,742 Climbing FlightAware ADS-B
Sun 06:16:14 AM 50.6793 -1.9016 83° East 402 463 21,500 -2,182 Descending FlightAware UK
Sun 06:16:28 AM 50.6818 -1.8628 83° East 385 443 22,500 -2,600 Climbing FlightAware ADS-B
Sun 06:16:44 AM 50.6851 -1.8185 83° East 410 472 20,200 -2,438 Descending FlightAware UK
Sun 06:17:00 AM 50.6884 -1.7731 83° East 392 451 21,200 2,455 Climbing FlightAware ADS-B
Sun 06:17:06 AM 50.6904 -1.7553 80° East 388 447 21,100 -3,923 Descending FlightAware ADS-B
Sun 06:17:26 AM 50.6998 -1.7026 80° East 404 465 19,500 -188 Descending FlightAware UK
Sun 06:17:38 AM 50.7055 -1.6729 80° East 374 430 21,000  Climbing FlightAware ADS-B
Sun 06:17:56 AM 50.7152 -1.6244 80° East 406 467 19,500 -563 Descending FlightAware UK
Sun 06:18:10 AM 50.7222 -1.5896 80° East 373 429 20,700 136 Climbing FlightAware ADS-B
Sun 06:18:40 AM 50.7381 -1.5121 72° East 367 422 19,600 -4,174 Descending FlightAware ADS-B
Sun 06:18:56 AM 50.7465 -1.4699 72° East 396 456 17,500 -2,000 Descending FlightAware UK
Sun 06:19:10 AM 50.7532 -1.4356 72° East 361 415 18,600 545 Climbing FlightAware ADS-B
Sun 06:19:40 AM 50.7687 -1.3602 72° East 361 415 17,900 -1,300 Descending FlightAware ADS-B
Sun 06:20:10 AM 50.7841 -1.2855 72° East 354 407 17,300 -3,000 Descending FlightAware ADS-B
Sun 06:20:32 AM 50.7955 -1.2310 72° East 384 442 15,300 -1,355 Descending FlightAware UK
Sun 06:20:41 AM 50.7998 -1.2117 72° East 349 402 16,600 1,077 Climbing FlightAware ADS-B
Sun 06:21:11 AM 50.8156 -1.1389 71° East 347 399 16,000 -3,333 Descending FlightAware ADS-B
Sun 06:21:26 AM 50.8236 -1.1023 71° East 376 433 14,100 -1,161 Descending FlightAware UK
Sun 06:21:42 AM 50.8315 -1.0666 71° East 343 395 15,400 783 Climbing FlightAware ADS-B
Sun 06:22:12 AM 50.8474 -0.9967 70° East 334 384 14,700 -3,240 Descending FlightAware ADS-B
Sun 06:22:32 AM 50.8583 -0.9490 70° East 348 400 12,700 -1,355 Descending FlightAware UK
Sun 06:22:43 AM 50.8632 -0.9271 70° East 321 369 14,000 -1,200 Climbing FlightAware ADS-B
Sun 06:23:02 AM 50.8729 -0.8831 70° East 334 384 12,100 -1,000 Descending FlightAware UK
Sun 06:23:13 AM 50.8772 -0.8619 70° East 309 356 13,500 1,171 Climbing FlightAware ADS-B
Sun 06:23:43 AM 50.8912 -0.7973 71° East 296 341 12,900 -2,939 Descending FlightAware ADS-B
Sun 06:24:02 AM 50.8999 -0.7581 71° East 308 354 11,100 -968 Descending FlightAware UK
Sun 06:24:14 AM 50.9050 -0.7363 71° East 285 328 12,400 3,429 Climbing FlightAware ADS-B
Sun 06:24:23 AM 50.9085 -0.7180 73° East 284 327 12,300 -1,059 Descending FlightAware ADS-B
Sun 06:24:31 AM 50.9105 -0.7021 79° East 284 327 12,100 -1,385 Descending FlightAware ADS-B
Sun 06:24:36 AM 50.9112 -0.6915 84° East 284 327 12,000 -667 Descending FlightAware ADS-B
Sun 06:24:40 AM 50.9116 -0.6843 85° East 285 328 12,000 -923 Level FlightAware ADS-B
Sun 06:24:49 AM 50.9117 -0.6655 90° East 287 330 11,800 -960 Descending FlightAware ADS-B
Sun 06:25:05 AM 50.9103 -0.6307 94° East 289 333 11,600 -894 Descending FlightAware ADS-B
Sun 06:25:36 AM 50.9077 -0.5671 94° East 285 328 11,100 -1,029 Descending FlightAware ADS-B
Sun 06:26:15 AM 50.9042 -0.4849 94° East 287 330 10,400 -904 Descending FlightAware ADS-B
Sun 06:26:49 AM 50.9011 -0.4156 94° East 279 321 10,000 -612 Descending FlightAware ADS-B
Sun 06:27:04 AM 50.8998 -0.3857 94° East 267 307 9,900 -581 Descending FlightAware ADS-B
Sun 06:27:20 AM 50.8984 -0.3554 94° East 263 303 9,700 -889 Descending FlightAware ADS-B
Sun 06:27:31 AM 50.8976 -0.3339 93° East 258 297 9,500 -1,200 Descending FlightAware ADS-B
Sun 06:27:35 AM 50.8976 -0.3260 90° East 258 297 9,400 -750 Descending FlightAware ADS-B
Sun 06:27:39 AM 50.8982 -0.3181 83° East 257 296 9,400 -600 Level FlightAware ADS-B
Sun 06:27:45 AM 50.8999 -0.3077 75° East 255 293 9,300 -600 Descending FlightAware ADS-B
Sun 06:27:49 AM 50.9019 -0.3009 65° Northeast 252 290 9,300 -545 Level FlightAware ADS-B
Sun 06:27:56 AM 50.9055 -0.2907 61° Northeast 250 288 9,200 -1,304 Descending FlightAware ADS-B
Sun 06:28:12 AM 50.9160 -0.2647 57° Northeast 252 290 8,800 -4,452 Descending FlightAware ADS-B
Sun 06:28:27 AM 50.9253 -0.2419 57° Northeast 248 285 6,900 -1,167 Descending FlightAware UK
Sun 06:28:48 AM 50.9381 -0.2105 57° Northeast 252 290 8,100 -1,000 Climbing FlightAware ADS-B
Sun 06:29:15 AM 50.9554 -0.1676 57° Northeast 244 281 6,100 -1,017 Descending FlightAware UK
Sun 06:29:47 AM 50.9720 -0.1260 57° Northeast 249 287 7,100 842 Climbing FlightAware ADS-B
Sun 06:30:12 AM 50.9860 -0.0880 60° Northeast 247 284 6,900 -764 Descending FlightAware ADS-B
Sun 06:30:42 AM 51.0040 -0.0440 57° Northeast 246 283 6,400 -1,067 Descending FlightAware ADS-B
Sun 06:30:57 AM 51.0120 -0.0200 62° Northeast 240 276 6,100 -1,050 Descending FlightAware ADS-B
Sun 06:31:22 AM 51.0280 0.0200 58° Northeast 238 274 5,700 -3,286 Descending FlightAware ADS-B
Sun 06:31:39 AM 51.0406 0.0545 58° Northeast 236 272 3,800 -1,000 Descending FlightAware UK
Sun 06:31:52 AM 51.0450 0.0660 58° Northeast 234 269 5,200 -833 Climbing FlightAware ADS-B
Sun 06:32:15 AM 51.0604 0.1076 58° Northeast 232 267 3,300 -720 Descending FlightAware UK
Sun 06:32:17 AM 51.0590 0.1030 58° Northeast 235 270 4,900 -667 Climbing FlightAware ADS-B
Sun 06:32:33 AM 51.0702 0.1349 58° Northeast 232 267 3,100 -600 Descending FlightAware UK
Sun 06:32:47 AM 51.0740 0.1450 58° Northeast 237 273 4,600 -500 Climbing FlightAware ADS-B
Sun 06:33:09 AM 51.0900 0.1893 58° Northeast 230 265 2,800 -600 Descending FlightAware UK
Sun 06:33:17 AM 51.0900 0.1890 58° Northeast 235 270 4,300 4,667 Climbing FlightAware ADS-B
Sun 06:33:27 AM 51.0990 0.2000 38° Northeast 225 259 4,200 -240 Descending FlightAware ADS-B
Sun 06:33:42 AM 51.1150 0.2050 11° North 207 238 4,200 -3,400 Level FlightAware ADS-B
Sun 06:33:57 AM 51.1343 0.2032 11° North 198 228 2,500 -400 Descending FlightAware UK
Sun 06:34:12 AM 51.1430 0.2020 11° North 178 205 4,000 2,800 Climbing FlightAware ADS-B
Sun 06:34:27 AM 51.1540 0.1930 333° Northwest 177 204 3,900 -200 Descending FlightAware ADS-B
Sun 06:34:42 AM 51.1600 0.1760 299° West 177 204 3,900 -2,833 Level FlightAware ADS-B
Sun 06:35:03 AM 51.1669 0.1429 299° West 188 216 2,200 -480 Descending FlightAware UK
Sun 06:35:07 AM 51.1670 0.1450 299° West 179 206 3,700 2,471 Climbing FlightAware ADS-B
Sun 06:35:37 AM 51.1750 0.1060 288° West 180 207 3,600 -436 Descending FlightAware ADS-B
Sun 06:36:02 AM 51.1810 0.0750 288° West 181 208 3,300 -4,385 Descending FlightAware ADS-B
Sun 06:36:03 AM 51.1810 0.0662 288° West 190 219 1,700 -6,000 Descending FlightAware UK
Sun 06:36:21 AM 51.1796 0.0424 288° West 188 216 1,400 2,276 Descending FlightAware UK
Sun 06:36:32 AM 51.1790 0.0350 288° West 182 209 2,800 -1,000 Climbing FlightAware ADS-B
Sun 06:36:57 AM 51.1738 -0.0041 288° West 186 214 800 -1,000 Descending FlightAware UK
Sun 06:37:02 AM 51.1740 -0.0040 288° West 177 204 2,300 2,200 Climbing FlightAware ADS-B
Sun 06:37:27 AM 51.1700 -0.0340 258° West 169 194 1,900 -873 Descending FlightAware ADS-B
Sun 06:37:57 AM 51.1650 -0.0670 256° West 150 173 1,500 -873 Descending FlightAware ADS-B
Sun 06:38:22 AM 51.1620 -0.0930 260° West 136 157 1,100 -764 Descending FlightAware ADS-B
Sun 06:38:52 AM 51.1580 -0.1180 256° West 135 155 800 -655 Descending FlightAware ADS-B
Sun 06:39:17 AM 51.1540 -0.1440 256° West 138 159 500 -800 Descending FlightAware ADS-B
Sun 06:39:37 AM 51.1520 -0.1640 261° West 134 154 200 -400 Descending FlightAware ADS-B
Sun 06:40:02 AM 51.1490 -0.1880 259° West 134 154 200  Level FlightAware ADS-B
Sun 06:42:00 AM 51.1481 -0.1903 79° East  Level Estimated

Login

Don't have an account? Register now (free) for customized features, flight alerts, and more!